sensor_id;sensor_type;location;lat;lon;timestamp;P1;durP1;ratioP1;P2;durP2;ratioP2
19167;SDS011;9716;53.114;18.040;2022-11-15T00:01:26;53.83;;;19.65;;
19167;SDS011;9716;53.114;18.040;2022-11-15T00:03:55;50.60;;;17.45;;
19167;SDS011;9716;53.114;18.040;2022-11-15T00:06:23;46.50;;;17.50;;
19167;SDS011;9716;53.114;18.040;2022-11-15T00:08:52;50.72;;;18.17;;
19167;SDS011;9716;53.114;18.040;2022-11-15T00:11:21;59.05;;;19.33;;
19167;SDS011;9716;53.114;18.040;2022-11-15T00:13:50;52.35;;;19.27;;
19167;SDS011;9716;53.114;18.040;2022-11-15T00:16:22;46.22;;;19.92;;
19167;SDS011;9716;53.114;18.040;2022-11-15T00:18:51;44.10;;;17.05;;
19167;SDS011;9716;53.114;18.040;2022-11-15T00:21:20;51.75;;;20.52;;
19167;SDS011;9716;53.114;18.040;2022-11-15T00:23:48;47.97;;;18.02;;
19167;SDS011;9716;53.114;18.040;2022-11-15T00:26:17;45.50;;;18.27;;
19167;SDS011;9716;53.114;18.040;2022-11-15T00:28:46;49.43;;;18.60;;
19167;SDS011;9716;53.114;18.040;2022-11-15T00:31:16;50.58;;;18.75;;
19167;SDS011;9716;53.114;18.040;2022-11-15T00:33:44;44.03;;;19.15;;
19167;SDS011;9716;53.114;18.040;2022-11-15T00:36:13;62.72;;;20.00;;
19167;SDS011;9716;53.114;18.040;2022-11-15T00:38:41;51.03;;;18.85;;
19167;SDS011;9716;53.114;18.040;2022-11-15T00:41:10;60.40;;;20.17;;
19167;SDS011;9716;53.114;18.040;2022-11-15T00:43:39;55.28;;;18.92;;
19167;SDS011;9716;53.114;18.040;2022-11-15T00:46:10;44.72;;;18.90;;
19167;SDS011;9716;53.114;18.040;2022-11-15T00:48:40;52.65;;;21.02;;
19167;SDS011;9716;53.114;18.040;2022-11-15T00:51:09;55.97;;;19.85;;
19167;SDS011;9716;53.114;18.040;2022-11-15T00:53:37;56.53;;;20.58;;
19167;SDS011;9716;53.114;18.040;2022-11-15T00:56:06;54.28;;;19.33;;
19167;SDS011;9716;53.114;18.040;2022-11-15T00:58:34;62.38;;;23.40;;
19167;SDS011;9716;53.114;18.040;2022-11-15T01:01:07;62.65;;;20.33;;
19167;SDS011;9716;53.114;18.040;2022-11-15T01:03:37;60.65;;;20.27;;
19167;SDS011;9716;53.114;18.040;2022-11-15T01:06:08;59.47;;;20.60;;
19167;SDS011;9716;53.114;18.040;2022-11-15T01:08:38;51.80;;;20.40;;
19167;SDS011;9716;53.114;18.040;2022-11-15T01:11:07;52.90;;;20.77;;
19167;SDS011;9716;53.114;18.040;2022-11-15T01:13:38;48.88;;;19.73;;
19167;SDS011;9716;53.114;18.040;2022-11-15T01:16:08;70.20;;;21.58;;
19167;SDS011;9716;53.114;18.040;2022-11-15T01:18:38;54.53;;;20.42;;
19167;SDS011;9716;53.114;18.040;2022-11-15T01:21:10;56.38;;;21.35;;
19167;SDS011;9716;53.114;18.040;2022-11-15T01:23:40;57.50;;;22.40;;
19167;SDS011;9716;53.114;18.040;2022-11-15T01:26:10;54.05;;;20.40;;
19167;SDS011;9716;53.114;18.040;2022-11-15T01:28:41;67.55;;;23.45;;
19167;SDS011;9716;53.114;18.040;2022-11-15T01:31:11;57.25;;;23.33;;
19167;SDS011;9716;53.114;18.040;2022-11-15T01:33:41;76.10;;;25.23;;
19167;SDS011;9716;53.114;18.040;2022-11-15T01:36:13;62.42;;;24.25;;
19167;SDS011;9716;53.114;18.040;2022-11-15T01:38:43;58.03;;;23.30;;
19167;SDS011;9716;53.114;18.040;2022-11-15T01:41:15;68.82;;;22.73;;
19167;SDS011;9716;53.114;18.040;2022-11-15T01:43:46;70.45;;;25.23;;
19167;SDS011;9716;53.114;18.040;2022-11-15T01:46:21;69.80;;;25.17;;
19167;SDS011;9716;53.114;18.040;2022-11-15T01:48:53;62.85;;;22.38;;
19167;SDS011;9716;53.114;18.040;2022-11-15T01:51:27;76.63;;;24.48;;
19167;SDS011;9716;53.114;18.040;2022-11-15T01:54:01;66.28;;;25.08;;
19167;SDS011;9716;53.114;18.040;2022-11-15T01:56:36;75.05;;;25.05;;
19167;SDS011;9716;53.114;18.040;2022-11-15T01:59:10;80.90;;;23.48;;
19167;SDS011;9716;53.114;18.040;2022-11-15T02:01:39;76.05;;;25.67;;
19167;SDS011;9716;53.114;18.040;2022-11-15T02:04:10;63.28;;;22.70;;
19167;SDS011;9716;53.114;18.040;2022-11-15T02:06:43;71.30;;;21.23;;
19167;SDS011;9716;53.114;18.040;2022-11-15T02:09:13;72.55;;;26.40;;
19167;SDS011;9716;53.114;18.040;2022-11-15T02:11:42;87.60;;;25.75;;
19167;SDS011;9716;53.114;18.040;2022-11-15T02:14:12;56.13;;;24.65;;
19167;SDS011;9716;53.114;18.040;2022-11-15T02:16:45;64.32;;;24.00;;
19167;SDS011;9716;53.114;18.040;2022-11-15T02:19:28;77.50;;;24.73;;
19167;SDS011;9716;53.114;18.040;2022-11-15T02:22:14;65.45;;;23.80;;
19167;SDS011;9716;53.114;18.040;2022-11-15T02:25:01;67.85;;;26.20;;
19167;SDS011;9716;53.114;18.040;2022-11-15T02:27:48;64.28;;;22.50;;
19167;SDS011;9716;53.114;18.040;2022-11-15T02:30:37;69.72;;;24.65;;
19167;SDS011;9716;53.114;18.040;2022-11-15T02:33:13;69.68;;;23.73;;
19167;SDS011;9716;53.114;18.040;2022-11-15T02:35:51;69.88;;;24.33;;
19167;SDS011;9716;53.114;18.040;2022-11-15T02:38:28;64.28;;;21.67;;
19167;SDS011;9716;53.114;18.040;2022-11-15T02:41:01;79.35;;;23.88;;
19167;SDS011;9716;53.114;18.040;2022-11-15T02:43:35;72.37;;;24.80;;
19167;SDS011;9716;53.114;18.040;2022-11-15T02:46:26;74.15;;;24.95;;
19167;SDS011;9716;53.114;18.040;2022-11-15T02:49:14;70.18;;;23.90;;
19167;SDS011;9716;53.114;18.040;2022-11-15T02:51:43;68.20;;;19.85;;
19167;SDS011;9716;53.114;18.040;2022-11-15T02:54:17;58.90;;;21.85;;
19167;SDS011;9716;53.114;18.040;2022-11-15T02:56:49;66.70;;;24.30;;
19167;SDS011;9716;53.114;18.040;2022-11-15T02:59:27;63.50;;;23.10;;
19167;SDS011;9716;53.114;18.040;2022-11-15T03:02:16;68.85;;;23.25;;
19167;SDS011;9716;53.114;18.040;2022-11-15T03:04:53;60.30;;;20.80;;
19167;SDS011;9716;53.114;18.040;2022-11-15T03:07:24;61.90;;;21.25;;
19167;SDS011;9716;53.114;18.040;2022-11-15T03:10:01;59.88;;;21.92;;
19167;SDS011;9716;53.114;18.040;2022-11-15T03:12:35;58.85;;;21.63;;
19167;SDS011;9716;53.114;18.040;2022-11-15T03:15:09;59.60;;;20.35;;
19167;SDS011;9716;53.114;18.040;2022-11-15T03:17:46;54.45;;;20.83;;
19167;SDS011;9716;53.114;18.040;2022-11-15T03:20:21;51.85;;;21.42;;
19167;SDS011;9716;53.114;18.040;2022-11-15T03:22:50;46.78;;;19.25;;
19167;SDS011;9716;53.114;18.040;2022-11-15T03:25:20;50.30;;;20.65;;
19167;SDS011;9716;53.114;18.040;2022-11-15T03:27:53;56.88;;;19.90;;
19167;SDS011;9716;53.114;18.040;2022-11-15T03:30:25;54.03;;;19.30;;
19167;SDS011;9716;53.114;18.040;2022-11-15T03:32:56;48.67;;;18.77;;
19167;SDS011;9716;53.114;18.040;2022-11-15T03:35:27;49.92;;;19.80;;
19167;SDS011;9716;53.114;18.040;2022-11-15T03:38:00;44.22;;;18.52;;
19167;SDS011;9716;53.114;18.040;2022-11-15T03:40:36;62.90;;;17.67;;
19167;SDS011;9716;53.114;18.040;2022-11-15T03:43:09;58.05;;;18.23;;
19167;SDS011;9716;53.114;18.040;2022-11-15T03:45:43;54.42;;;19.30;;
19167;SDS011;9716;53.114;18.040;2022-11-15T03:48:18;43.47;;;17.95;;
19167;SDS011;9716;53.114;18.040;2022-11-15T03:50:50;54.17;;;18.43;;
19167;SDS011;9716;53.114;18.040;2022-11-15T03:53:19;43.55;;;18.13;;
19167;SDS011;9716;53.114;18.040;2022-11-15T03:55:48;50.53;;;19.45;;
19167;SDS011;9716;53.114;18.040;2022-11-15T03:58:17;61.97;;;17.77;;
19167;SDS011;9716;53.114;18.040;2022-11-15T04:00:46;49.70;;;18.00;;
19167;SDS011;9716;53.114;18.040;2022-11-15T04:03:14;39.63;;;17.45;;
19167;SDS011;9716;53.114;18.040;2022-11-15T04:05:45;45.25;;;18.02;;
19167;SDS011;9716;53.114;18.040;2022-11-15T04:08:13;58.60;;;18.77;;
19167;SDS011;9716;53.114;18.040;2022-11-15T04:10:42;55.28;;;18.20;;
19167;SDS011;9716;53.114;18.040;2022-11-15T04:13:11;51.38;;;18.27;;
19167;SDS011;9716;53.114;18.040;2022-11-15T04:15:39;50.05;;;17.88;;
19167;SDS011;9716;53.114;18.040;2022-11-15T04:18:08;45.95;;;17.30;;
19167;SDS011;9716;53.114;18.040;2022-11-15T04:20:38;55.88;;;17.75;;
19167;SDS011;9716;53.114;18.040;2022-11-15T04:23:24;52.33;;;18.25;;
19167;SDS011;9716;53.114;18.040;2022-11-15T04:26:11;54.08;;;18.25;;
19167;SDS011;9716;53.114;18.040;2022-11-15T04:28:43;51.00;;;18.17;;
19167;SDS011;9716;53.114;18.040;2022-11-15T04:31:26;57.88;;;18.20;;
19167;SDS011;9716;53.114;18.040;2022-11-15T04:33:55;55.40;;;16.87;;
19167;SDS011;9716;53.114;18.040;2022-11-15T04:36:26;54.35;;;19.67;;
19167;SDS011;9716;53.114;18.040;2022-11-15T04:39:12;48.47;;;17.23;;
19167;SDS011;9716;53.114;18.040;2022-11-15T04:41:40;48.67;;;17.90;;
19167;SDS011;9716;53.114;18.040;2022-11-15T04:44:09;42.38;;;17.08;;
19167;SDS011;9716;53.114;18.040;2022-11-15T04:46:38;53.25;;;17.90;;
19167;SDS011;9716;53.114;18.040;2022-11-15T04:49:06;54.95;;;18.85;;
19167;SDS011;9716;53.114;18.040;2022-11-15T04:51:37;47.97;;;16.42;;
19167;SDS011;9716;53.114;18.040;2022-11-15T04:54:05;60.38;;;17.25;;
19167;SDS011;9716;53.114;18.040;2022-11-15T04:56:35;51.15;;;17.60;;
19167;SDS011;9716;53.114;18.040;2022-11-15T04:59:03;47.58;;;15.57;;
19167;SDS011;9716;53.114;18.040;2022-11-15T05:01:32;50.40;;;18.40;;
19167;SDS011;9716;53.114;18.040;2022-11-15T05:04:06;59.92;;;18.98;;
19167;SDS011;9716;53.114;18.040;2022-11-15T05:06:50;50.10;;;17.33;;
19167;SDS011;9716;53.114;18.040;2022-11-15T05:09:19;48.50;;;17.02;;
19167;SDS011;9716;53.114;18.040;2022-11-15T05:11:48;37.95;;;16.23;;
19167;SDS011;9716;53.114;18.040;2022-11-15T05:14:17;48.03;;;17.77;;
19167;SDS011;9716;53.114;18.040;2022-11-15T05:16:45;49.17;;;17.20;;
19167;SDS011;9716;53.114;18.040;2022-11-15T05:19:14;61.63;;;18.45;;
19167;SDS011;9716;53.114;18.040;2022-11-15T05:21:43;50.35;;;18.08;;
19167;SDS011;9716;53.114;18.040;2022-11-15T05:24:13;50.53;;;17.55;;
19167;SDS011;9716;53.114;18.040;2022-11-15T05:26:42;50.05;;;16.55;;
19167;SDS011;9716;53.114;18.040;2022-11-15T05:29:11;45.10;;;16.23;;
19167;SDS011;9716;53.114;18.040;2022-11-15T05:31:39;42.80;;;16.20;;
19167;SDS011;9716;53.114;18.040;2022-11-15T05:34:09;56.50;;;17.08;;
19167;SDS011;9716;53.114;18.040;2022-11-15T05:36:38;52.90;;;17.05;;
19167;SDS011;9716;53.114;18.040;2022-11-15T05:39:11;47.88;;;15.95;;
19167;SDS011;9716;53.114;18.040;2022-11-15T05:41:41;51.08;;;17.60;;
19167;SDS011;9716;53.114;18.040;2022-11-15T05:44:14;63.42;;;18.15;;
19167;SDS011;9716;53.114;18.040;2022-11-15T05:46:45;59.17;;;18.67;;
19167;SDS011;9716;53.114;18.040;2022-11-15T05:49:15;49.17;;;17.65;;
19167;SDS011;9716;53.114;18.040;2022-11-15T05:51:47;53.67;;;18.60;;
19167;SDS011;9716;53.114;18.040;2022-11-15T05:54:16;43.90;;;16.27;;
19167;SDS011;9716;53.114;18.040;2022-11-15T05:56:49;54.97;;;18.33;;
19167;SDS011;9716;53.114;18.040;2022-11-15T05:59:17;36.78;;;15.18;;
19167;SDS011;9716;53.114;18.040;2022-11-15T06:01:48;49.70;;;18.90;;
19167;SDS011;9716;53.114;18.040;2022-11-15T06:04:16;48.42;;;17.55;;
19167;SDS011;9716;53.114;18.040;2022-11-15T06:06:45;53.15;;;17.17;;
19167;SDS011;9716;53.114;18.040;2022-11-15T06:09:13;46.17;;;18.05;;
19167;SDS011;9716;53.114;18.040;2022-11-15T06:11:42;46.10;;;17.83;;
19167;SDS011;9716;53.114;18.040;2022-11-15T06:14:11;55.22;;;18.15;;
19167;SDS011;9716;53.114;18.040;2022-11-15T06:16:40;50.47;;;17.70;;
19167;SDS011;9716;53.114;18.040;2022-11-15T06:19:09;47.55;;;18.10;;
19167;SDS011;9716;53.114;18.040;2022-11-15T06:21:38;49.47;;;17.38;;
19167;SDS011;9716;53.114;18.040;2022-11-15T06:24:06;47.97;;;16.75;;
19167;SDS011;9716;53.114;18.040;2022-11-15T06:26:36;42.08;;;16.58;;
19167;SDS011;9716;53.114;18.040;2022-11-15T06:29:05;55.15;;;17.98;;
19167;SDS011;9716;53.114;18.040;2022-11-15T06:31:36;48.80;;;18.30;;
19167;SDS011;9716;53.114;18.040;2022-11-15T06:34:04;53.42;;;16.55;;
19167;SDS011;9716;53.114;18.040;2022-11-15T06:36:33;50.65;;;18.42;;
19167;SDS011;9716;53.114;18.040;2022-11-15T06:39:02;43.50;;;16.48;;
19167;SDS011;9716;53.114;18.040;2022-11-15T06:41:33;61.42;;;17.58;;
19167;SDS011;9716;53.114;18.040;2022-11-15T06:44:02;53.60;;;18.13;;
19167;SDS011;9716;53.114;18.040;2022-11-15T06:46:31;43.13;;;18.35;;
19167;SDS011;9716;53.114;18.040;2022-11-15T06:49:01;46.45;;;17.88;;
19167;SDS011;9716;53.114;18.040;2022-11-15T06:51:35;51.28;;;17.08;;
19167;SDS011;9716;53.114;18.040;2022-11-15T06:54:04;47.17;;;16.05;;
19167;SDS011;9716;53.114;18.040;2022-11-15T06:56:33;43.70;;;18.33;;
19167;SDS011;9716;53.114;18.040;2022-11-15T06:59:02;56.05;;;17.95;;
19167;SDS011;9716;53.114;18.040;2022-11-15T07:01:30;58.13;;;17.63;;
19167;SDS011;9716;53.114;18.040;2022-11-15T07:04:01;47.92;;;17.40;;
19167;SDS011;9716;53.114;18.040;2022-11-15T07:06:30;53.05;;;18.77;;
19167;SDS011;9716;53.114;18.040;2022-11-15T07:08:59;49.55;;;16.83;;
19167;SDS011;9716;53.114;18.040;2022-11-15T07:11:27;49.47;;;18.00;;
19167;SDS011;9716;53.114;18.040;2022-11-15T07:13:56;53.33;;;18.08;;
19167;SDS011;9716;53.114;18.040;2022-11-15T07:16:26;52.22;;;17.52;;
19167;SDS011;9716;53.114;18.040;2022-11-15T07:18:55;59.65;;;17.75;;
19167;SDS011;9716;53.114;18.040;2022-11-15T07:21:26;53.33;;;18.33;;
19167;SDS011;9716;53.114;18.040;2022-11-15T07:23:54;43.75;;;15.63;;
19167;SDS011;9716;53.114;18.040;2022-11-15T07:26:23;49.72;;;15.93;;
19167;SDS011;9716;53.114;18.040;2022-11-15T07:28:52;52.15;;;16.67;;
19167;SDS011;9716;53.114;18.040;2022-11-15T07:31:21;47.65;;;17.67;;
19167;SDS011;9716;53.114;18.040;2022-11-15T07:33:50;48.28;;;16.90;;
19167;SDS011;9716;53.114;18.040;2022-11-15T07:36:18;51.20;;;16.95;;
19167;SDS011;9716;53.114;18.040;2022-11-15T07:38:48;47.28;;;16.67;;
19167;SDS011;9716;53.114;18.040;2022-11-15T07:41:16;38.40;;;15.73;;
19167;SDS011;9716;53.114;18.040;2022-11-15T07:43:45;62.38;;;17.85;;
19167;SDS011;9716;53.114;18.040;2022-11-15T07:46:14;53.90;;;17.73;;
19167;SDS011;9716;53.114;18.040;2022-11-15T07:48:42;44.58;;;18.58;;
19167;SDS011;9716;53.114;18.040;2022-11-15T07:51:11;39.10;;;16.30;;
19167;SDS011;9716;53.114;18.040;2022-11-15T07:53:41;38.10;;;16.88;;
19167;SDS011;9716;53.114;18.040;2022-11-15T07:56:11;39.90;;;16.58;;
19167;SDS011;9716;53.114;18.040;2022-11-15T07:58:40;54.00;;;16.95;;
19167;SDS011;9716;53.114;18.040;2022-11-15T08:01:09;44.28;;;18.00;;
19167;SDS011;9716;53.114;18.040;2022-11-15T08:03:39;50.90;;;16.13;;
19167;SDS011;9716;53.114;18.040;2022-11-15T08:06:08;38.50;;;15.80;;
19167;SDS011;9716;53.114;18.040;2022-11-15T08:08:36;54.67;;;15.98;;
19167;SDS011;9716;53.114;18.040;2022-11-15T08:11:05;45.33;;;16.13;;
19167;SDS011;9716;53.114;18.040;2022-11-15T08:13:34;47.75;;;16.67;;
19167;SDS011;9716;53.114;18.040;2022-11-15T08:16:03;50.42;;;16.02;;
19167;SDS011;9716;53.114;18.040;2022-11-15T08:18:32;40.80;;;15.15;;
19167;SDS011;9716;53.114;18.040;2022-11-15T08:21:01;43.95;;;15.88;;
19167;SDS011;9716;53.114;18.040;2022-11-15T08:23:30;43.13;;;16.42;;
19167;SDS011;9716;53.114;18.040;2022-11-15T08:26:00;44.05;;;14.65;;
19167;SDS011;9716;53.114;18.040;2022-11-15T08:28:29;48.38;;;16.52;;
19167;SDS011;9716;53.114;18.040;2022-11-15T08:31:00;40.15;;;14.43;;
19167;SDS011;9716;53.114;18.040;2022-11-15T08:33:30;44.05;;;16.55;;
19167;SDS011;9716;53.114;18.040;2022-11-15T08:36:00;55.60;;;17.13;;
19167;SDS011;9716;53.114;18.040;2022-11-15T08:38:29;39.85;;;15.63;;
19167;SDS011;9716;53.114;18.040;2022-11-15T08:41:00;47.92;;;18.02;;
19167;SDS011;9716;53.114;18.040;2022-11-15T08:43:32;47.40;;;17.95;;
19167;SDS011;9716;53.114;18.040;2022-11-15T08:46:02;42.72;;;15.00;;
19167;SDS011;9716;53.114;18.040;2022-11-15T08:48:31;36.92;;;16.00;;
19167;SDS011;9716;53.114;18.040;2022-11-15T08:51:00;40.20;;;15.70;;
19167;SDS011;9716;53.114;18.040;2022-11-15T08:53:29;37.67;;;15.27;;
19167;SDS011;9716;53.114;18.040;2022-11-15T08:55:57;44.25;;;14.65;;
19167;SDS011;9716;53.114;18.040;2022-11-15T08:58:26;34.50;;;14.15;;
19167;SDS011;9716;53.114;18.040;2022-11-15T09:00:55;34.88;;;14.75;;
19167;SDS011;9716;53.114;18.040;2022-11-15T09:03:24;46.17;;;13.77;;
19167;SDS011;9716;53.114;18.040;2022-11-15T09:05:54;40.70;;;16.02;;
19167;SDS011;9716;53.114;18.040;2022-11-15T09:08:23;53.67;;;17.45;;
19167;SDS011;9716;53.114;18.040;2022-11-15T09:11:12;40.38;;;14.70;;
19167;SDS011;9716;53.114;18.040;2022-11-15T09:13:42;36.75;;;13.55;;
19167;SDS011;9716;53.114;18.040;2022-11-15T09:16:11;45.75;;;14.95;;
19167;SDS011;9716;53.114;18.040;2022-11-15T09:18:43;42.45;;;15.15;;
19167;SDS011;9716;53.114;18.040;2022-11-15T09:21:12;42.33;;;15.52;;
19167;SDS011;9716;53.114;18.040;2022-11-15T09:23:41;45.47;;;16.80;;
19167;SDS011;9716;53.114;18.040;2022-11-15T09:26:10;38.53;;;15.27;;
19167;SDS011;9716;53.114;18.040;2022-11-15T09:28:38;42.67;;;15.05;;
19167;SDS011;9716;53.114;18.040;2022-11-15T09:31:08;32.65;;;14.43;;
19167;SDS011;9716;53.114;18.040;2022-11-15T09:33:37;41.65;;;14.63;;
19167;SDS011;9716;53.114;18.040;2022-11-15T09:36:07;36.08;;;14.65;;
19167;SDS011;9716;53.114;18.040;2022-11-15T09:38:36;38.03;;;15.30;;
19167;SDS011;9716;53.114;18.040;2022-11-15T09:41:10;38.17;;;15.13;;
19167;SDS011;9716;53.114;18.040;2022-11-15T09:43:53;36.75;;;14.98;;
19167;SDS011;9716;53.114;18.040;2022-11-15T09:46:31;32.05;;;14.18;;
19167;SDS011;9716;53.114;18.040;2022-11-15T09:49:06;25.52;;;13.60;;
19167;SDS011;9716;53.114;18.040;2022-11-15T09:51:39;36.10;;;14.07;;
19167;SDS011;9716;53.114;18.040;2022-11-15T09:54:16;44.53;;;14.45;;
19167;SDS011;9716;53.114;18.040;2022-11-15T09:57:15;37.92;;;14.75;;
19167;SDS011;9716;53.114;18.040;2022-11-15T10:03:08;37.90;;;14.90;;
19167;SDS011;9716;53.114;18.040;2022-11-15T10:05:40;39.72;;;14.48;;
19167;SDS011;9716;53.114;18.040;2022-11-15T10:08:16;31.63;;;13.15;;
19167;SDS011;9716;53.114;18.040;2022-11-15T10:10:55;45.30;;;15.38;;
19167;SDS011;9716;53.114;18.040;2022-11-15T10:13:46;37.22;;;14.40;;
19167;SDS011;9716;53.114;18.040;2022-11-15T10:16:29;35.67;;;15.88;;
19167;SDS011;9716;53.114;18.040;2022-11-15T10:19:34;36.45;;;14.75;;
19167;SDS011;9716;53.114;18.040;2022-11-15T10:22:12;33.38;;;14.57;;
19167;SDS011;9716;53.114;18.040;2022-11-15T10:24:52;38.22;;;14.82;;
19167;SDS011;9716;53.114;18.040;2022-11-15T10:27:44;42.17;;;15.40;;
19167;SDS011;9716;53.114;18.040;2022-11-15T10:30:18;41.38;;;13.90;;
19167;SDS011;9716;53.114;18.040;2022-11-15T10:32:47;36.72;;;14.80;;
19167;SDS011;9716;53.114;18.040;2022-11-15T10:35:22;37.50;;;14.63;;
19167;SDS011;9716;53.114;18.040;2022-11-15T10:37:52;37.53;;;15.05;;
19167;SDS011;9716;53.114;18.040;2022-11-15T10:40:34;38.00;;;13.13;;
19167;SDS011;9716;53.114;18.040;2022-11-15T10:43:04;38.85;;;14.32;;
19167;SDS011;9716;53.114;18.040;2022-11-15T10:45:41;46.08;;;15.98;;
19167;SDS011;9716;53.114;18.040;2022-11-15T10:48:25;39.30;;;14.48;;
19167;SDS011;9716;53.114;18.040;2022-11-15T10:50:54;40.40;;;14.65;;
19167;SDS011;9716;53.114;18.040;2022-11-15T10:53:27;40.28;;;13.77;;
19167;SDS011;9716;53.114;18.040;2022-11-15T10:56:02;51.95;;;16.80;;
19167;SDS011;9716;53.114;18.040;2022-11-15T10:58:36;43.28;;;14.85;;
19167;SDS011;9716;53.114;18.040;2022-11-15T11:01:12;40.65;;;15.93;;
19167;SDS011;9716;53.114;18.040;2022-11-15T11:03:43;43.03;;;15.85;;
19167;SDS011;9716;53.114;18.040;2022-11-15T11:06:13;37.40;;;16.17;;
19167;SDS011;9716;53.114;18.040;2022-11-15T11:08:53;44.97;;;14.75;;
19167;SDS011;9716;53.114;18.040;2022-11-15T11:11:25;42.05;;;16.27;;
19167;SDS011;9716;53.114;18.040;2022-11-15T11:14:11;41.70;;;15.73;;
19167;SDS011;9716;53.114;18.040;2022-11-15T11:16:49;43.63;;;15.40;;
19167;SDS011;9716;53.114;18.040;2022-11-15T11:22:20;35.85;;;14.27;;
19167;SDS011;9716;53.114;18.040;2022-11-15T11:24:56;38.28;;;15.93;;
19167;SDS011;9716;53.114;18.040;2022-11-15T11:27:39;41.65;;;15.15;;
19167;SDS011;9716;53.114;18.040;2022-11-15T11:30:16;38.90;;;14.68;;
19167;SDS011;9716;53.114;18.040;2022-11-15T11:32:50;36.10;;;14.52;;
19167;SDS011;9716;53.114;18.040;2022-11-15T11:35:28;38.55;;;14.65;;
19167;SDS011;9716;53.114;18.040;2022-11-15T11:38:06;28.92;;;12.73;;
19167;SDS011;9716;53.114;18.040;2022-11-15T11:40:50;35.75;;;16.13;;
19167;SDS011;9716;53.114;18.040;2022-11-15T11:43:30;41.03;;;16.38;;
19167;SDS011;9716;53.114;18.040;2022-11-15T11:46:13;40.78;;;16.20;;
19167;SDS011;9716;53.114;18.040;2022-11-15T11:48:51;33.10;;;14.73;;
19167;SDS011;9716;53.114;18.040;2022-11-15T11:51:26;43.22;;;15.90;;
19167;SDS011;9716;53.114;18.040;2022-11-15T11:54:03;50.50;;;16.77;;
19167;SDS011;9716;53.114;18.040;2022-11-15T11:56:39;44.90;;;16.67;;
19167;SDS011;9716;53.114;18.040;2022-11-15T11:59:12;41.67;;;15.63;;
19167;SDS011;9716;53.114;18.040;2022-11-15T12:01:46;33.10;;;15.98;;
19167;SDS011;9716;53.114;18.040;2022-11-15T12:04:16;42.28;;;16.50;;
19167;SDS011;9716;53.114;18.040;2022-11-15T12:06:49;42.60;;;15.60;;
19167;SDS011;9716;53.114;18.040;2022-11-15T12:09:22;39.63;;;15.95;;
19167;SDS011;9716;53.114;18.040;2022-11-15T12:11:59;44.55;;;15.90;;
19167;SDS011;9716;53.114;18.040;2022-11-15T12:14:35;44.35;;;17.27;;
19167;SDS011;9716;53.114;18.040;2022-11-15T12:17:11;43.13;;;16.15;;
19167;SDS011;9716;53.114;18.040;2022-11-15T12:19:41;57.03;;;18.05;;
19167;SDS011;9716;53.114;18.040;2022-11-15T12:22:12;52.80;;;17.15;;
19167;SDS011;9716;53.114;18.040;2022-11-15T12:24:49;43.28;;;17.52;;
19167;SDS011;9716;53.114;18.040;2022-11-15T12:27:24;43.20;;;18.55;;
19167;SDS011;9716;53.114;18.040;2022-11-15T12:30:02;41.35;;;17.08;;
19167;SDS011;9716;53.114;18.040;2022-11-15T12:32:37;61.13;;;18.13;;
19167;SDS011;9716;53.114;18.040;2022-11-15T12:35:20;45.80;;;17.63;;
19167;SDS011;9716;53.114;18.040;2022-11-15T12:37:53;55.42;;;19.33;;
19167;SDS011;9716;53.114;18.040;2022-11-15T12:40:24;59.65;;;20.27;;
19167;SDS011;9716;53.114;18.040;2022-11-15T12:42:58;50.90;;;21.40;;
19167;SDS011;9716;53.114;18.040;2022-11-15T12:45:32;53.28;;;20.60;;
19167;SDS011;9716;53.114;18.040;2022-11-15T12:51:15;59.05;;;20.83;;
19167;SDS011;9716;53.114;18.040;2022-11-15T12:53:44;59.13;;;20.23;;
19167;SDS011;9716;53.114;18.040;2022-11-15T12:56:22;49.88;;;20.02;;
19167;SDS011;9716;53.114;18.040;2022-11-15T12:58:52;58.95;;;20.10;;
19167;SDS011;9716;53.114;18.040;2022-11-15T13:04:28;49.88;;;20.27;;
19167;SDS011;9716;53.114;18.040;2022-11-15T13:06:59;54.53;;;21.02;;
19167;SDS011;9716;53.114;18.040;2022-11-15T13:15:34;50.88;;;19.98;;
19167;SDS011;9716;53.114;18.040;2022-11-15T13:21:02;58.00;;;21.52;;
19167;SDS011;9716;53.114;18.040;2022-11-15T13:23:54;57.33;;;21.20;;
19167;SDS011;9716;53.114;18.040;2022-11-15T13:26:23;57.28;;;21.55;;
19167;SDS011;9716;53.114;18.040;2022-11-15T13:28:52;50.97;;;20.15;;
19167;SDS011;9716;53.114;18.040;2022-11-15T13:31:24;57.60;;;21.05;;
19167;SDS011;9716;53.114;18.040;2022-11-15T13:34:00;64.65;;;23.02;;
19167;SDS011;9716;53.114;18.040;2022-11-15T13:36:51;73.60;;;24.27;;
19167;SDS011;9716;53.114;18.040;2022-11-15T13:39:25;57.03;;;22.05;;
19167;SDS011;9716;53.114;18.040;2022-11-15T13:41:55;63.08;;;23.60;;
19167;SDS011;9716;53.114;18.040;2022-11-15T13:44:25;69.93;;;22.80;;
19167;SDS011;9716;53.114;18.040;2022-11-15T13:47:02;49.92;;;20.95;;
19167;SDS011;9716;53.114;18.040;2022-11-15T13:49:34;51.83;;;23.13;;
19167;SDS011;9716;53.114;18.040;2022-11-15T13:52:04;53.45;;;21.55;;
19167;SDS011;9716;53.114;18.040;2022-11-15T13:54:37;69.80;;;23.15;;
19167;SDS011;9716;53.114;18.040;2022-11-15T13:57:12;62.38;;;21.92;;
19167;SDS011;9716;53.114;18.040;2022-11-15T13:59:44;56.63;;;21.13;;
19167;SDS011;9716;53.114;18.040;2022-11-15T14:02:15;53.22;;;20.55;;
19167;SDS011;9716;53.114;18.040;2022-11-15T14:04:48;58.80;;;22.10;;
19167;SDS011;9716;53.114;18.040;2022-11-15T14:07:19;65.10;;;21.67;;
19167;SDS011;9716;53.114;18.040;2022-11-15T14:09:49;46.05;;;18.98;;
19167;SDS011;9716;53.114;18.040;2022-11-15T14:12:25;53.17;;;19.02;;
19167;SDS011;9716;53.114;18.040;2022-11-15T14:14:57;52.25;;;18.55;;
19167;SDS011;9716;53.114;18.040;2022-11-15T14:17:33;51.33;;;19.73;;
19167;SDS011;9716;53.114;18.040;2022-11-15T14:22:58;62.85;;;20.85;;
19167;SDS011;9716;53.114;18.040;2022-11-15T14:25:28;45.40;;;19.58;;
19167;SDS011;9716;53.114;18.040;2022-11-15T14:28:14;53.65;;;19.27;;
19167;SDS011;9716;53.114;18.040;2022-11-15T14:30:56;45.90;;;18.80;;
19167;SDS011;9716;53.114;18.040;2022-11-15T14:33:27;59.03;;;20.05;;
19167;SDS011;9716;53.114;18.040;2022-11-15T14:35:58;52.97;;;20.20;;
19167;SDS011;9716;53.114;18.040;2022-11-15T14:38:31;55.65;;;19.52;;
19167;SDS011;9716;53.114;18.040;2022-11-15T14:41:02;47.88;;;17.85;;
19167;SDS011;9716;53.114;18.040;2022-11-15T14:43:31;58.95;;;19.25;;
19167;SDS011;9716;53.114;18.040;2022-11-15T14:46:00;56.03;;;21.25;;
19167;SDS011;9716;53.114;18.040;2022-11-15T14:48:28;56.83;;;18.13;;
19167;SDS011;9716;53.114;18.040;2022-11-15T14:50:57;52.33;;;20.17;;
19167;SDS011;9716;53.114;18.040;2022-11-15T14:53:26;75.07;;;21.05;;
19167;SDS011;9716;53.114;18.040;2022-11-15T14:55:56;50.78;;;17.85;;
19167;SDS011;9716;53.114;18.040;2022-11-15T14:58:24;51.40;;;18.83;;
19167;SDS011;9716;53.114;18.040;2022-11-15T15:00:53;56.20;;;19.42;;
19167;SDS011;9716;53.114;18.040;2022-11-15T15:03:22;52.50;;;18.50;;
19167;SDS011;9716;53.114;18.040;2022-11-15T15:05:50;53.78;;;16.65;;
19167;SDS011;9716;53.114;18.040;2022-11-15T15:08:19;64.68;;;19.25;;
19167;SDS011;9716;53.114;18.040;2022-11-15T15:10:47;46.15;;;19.23;;
19167;SDS011;9716;53.114;18.040;2022-11-15T15:13:18;54.25;;;18.02;;
19167;SDS011;9716;53.114;18.040;2022-11-15T15:15:48;55.10;;;18.85;;